Flugplatz Groningen/Eelde (EHGG)

Hier findest Du alle Informationen zum Flugplatz Groningen/Eelde (EHGG).

Informationen für Piloten zum Flugplatz Groningen/Eelde

Hier findest Du alle relevanten Informationen, die Du als Pilot benötigst, um Groningen/Eelde anzufliegen.

Flugplatz: Groningen/Eelde ICAO-Code: EHGG
Frequenz Turm: 118,700 Mhz GAFOR Gebiet: -
Frequenz Ground: 121,700 Mhz Mogas: nein
Platzrunde: N 0 ft Landegebühr: -
Platzhöhe: Sunrise: 03:16 Uhr UTC
Pisten: 05/23 - 1800 m x 45 m, ASPH Sunset: 19:45 Uhr UTC

Flugwetter am Flugplatz Groningen/Eelde

Die METAR Information stammen aus EDDG (132.48 km entfernt).

METAR Code:
2024/05/23 05:50
EDDG 230550Z AUTO 20006KT 170V250 CAVOK 14/11 Q1014 NOSIG

Flugschulen am Flugplatz Groningen/Eelde

Am Flugplatz Groningen/Eelde gibt es leider keine Flugschule.

Benachbarte Flugplätze und Flugschulen

Es gibt 4 weitere Flugplätze in einem Umkreis von 50 km um den Flugplatz Groningen/Eelde.

Flugplatz Vliegveld Drachten EHDR 29.88 km
Flugplatz Oostwold EHOW 32.16 km
Flugplatz Stadskanaal EHST 32.73 km
Flugplatz Hoogeveen EHHO 43.35 km
Jetzt anmelden

Passwort vergessen

Umfrage Archiv

Wie häufig haltet Ihr die Halbkreisflugregel ein?

Eher häufig!
35.7 %
Immer!
31 %
Hin und wieder!
16.5 %
Nie!
9.4 %
Eher selten!
7.5 %
Stimmen: 255 | Diskussion
Anzeige: Roland Aircraft
Statistik Alle Mitglieder

Aktuell sind 15 Besucher online, davon 1 Mitglied und 14 Gäste.


Mitglieder online:
Stefan G. 

Anzeige: EasyVFR